Windhoek — 3FWJ3 — position and weather

sailwx.info

Track history (hours):
 
Tides and Currents Weather Stations Pressure Air Temp Water Temp Dewpoint Dewpoint Depression Visibility Wind Speed Wind Dir Waves Ship Positions

Windhoek

Last reported at 2016-May-24 04:14 UTC. Time now 2016-May-24 06:08 UTC.
Position N 50°00' W 005°59'.

Length 172 m; draft 7.5 m.

Type: Ship (hazmat cat C). MMSI: 370431000.

Date/timePositionNaut miles runAvg speedWind from/ knotsBaromVisibWave heightAir tempDewpointWater temp
2016-May-24 04:14N 50°00' W 005°59'1015.0
2016-May-24 03:34N 50°10' W 005°59'1515.4
2016-May-24 02:33N 50°26' W 005°60'1616.2
2016-May-24 01:33N 50°42' W 006°00'18415.3
2016-May-23 13:33N 53°34' W 004°13'1716.7
2016-May-23 12:33N 53°34' W 003°45'1515.2
2016-May-23 11:33N 53°32' W 003°19'8 8.5
2016-May-23 10:33N 53°30' W 003°05'4 3.7
2016-May-23 09:33N 53°27' W 003°01'1 0.6
2016-May-23 08:33N 53°28' W 003°01'0 0.1
2016-May-23 07:30N 53°28' W 003°01'0 0.0
2016-May-23 06:30N 53°28' W 003°01'0 0.0
2016-May-23 05:33N 53°28' W 003°01'0 0.0
2016-May-23 04:33N 53°28' W 003°01'0 0.0
2016-May-23 03:33N 53°28' W 003°01'0 0.0
2016-May-23 02:33N 53°28' W 003°01'0 0.0
2016-May-23 01:33N 53°28' W 003°01'0 0.0
2016-May-23 00:33N 53°28' W 003°01'0 0.0
2016-May-22 23:33N 53°28' W 003°01'0 0.0
2016-May-22 22:30N 53°28' W 003°01'0 0.0
2016-May-22 21:33N 53°28' W 003°01'0 0.0
2016-May-22 20:33N 53°28' W 003°01'0 0.0
2016-May-22 19:33N 53°28' W 003°01'0 0.0
2016-May-22 18:33N 53°28' W 003°01'0 0.0
2016-May-22 17:33N 53°28' W 003°01'0 0.0
2016-May-22 16:30N 53°28' W 003°01'0 0.0
2016-May-22 15:33N 53°28' W 003°01'0 0.0
2016-May-22 14:33N 53°28' W 003°01'0 0.0
2016-May-22 13:33N 53°28' W 003°01'0 0.0
2016-May-22 12:33N 53°28' W 003°01'0 0.0
2016-May-22 11:33N 53°28' W 003°01'0 0.1
2016-May-22 10:33N 53°28' W 003°01'1 0.7
2016-May-22 09:33N 53°27' W 003°01'2 1.6
2016-May-22 08:33N 53°28' W 003°03'8 8.4
2016-May-22 07:34N 53°31' W 003°16'9 8.8
2016-May-22 06:33N 53°32' W 003°31'1818.4
2016-May-22 05:33N 53°33' W 004°02'54 3.0
2016-May-21 11:33N 53°50' W 005°28'1717.1
2016-May-21 10:33N 54°05' W 005°14'1717.0
2016-May-21 09:34N 54°20' W 005°02'1817.9
2016-May-21 08:34N 54°36' W 005°17'1615.7
2016-May-21 07:33N 54°43' W 005°41'8 7.7
2016-May-21 06:28N 54°38' W 005°53'0 0.2
2016-May-21 05:31N 54°38' W 005°53'0 0.0
2016-May-21 04:28N 54°38' W 005°53'0 0.0
2016-May-21 03:31N 54°38' W 005°53'0 0.0
2016-May-21 02:31N 54°38' W 005°53'0 0.0
2016-May-21 01:31N 54°38' W 005°53'4 4.1
2016-May-21 00:34N 54°41' W 005°48'1111.5
2016-May-20 23:34N 54°49' W 005°34'1918.5
2016-May-20 22:33N 55°05' W 005°19'1917.8
2016-May-20 21:28N 55°23' W 005°04'2017.4
2016-May-20 20:18N 55°43' W 004°59'912.4
2016-May-20 19:33N 55°52' W 004°57'8 8.0
2016-May-20 18:31N 55°57' W 004°46'0 0.1
2016-May-20 17:31N 55°57' W 004°46'0 0.0
2016-May-20 16:31N 55°57' W 004°46'0 0.0
2016-May-20 15:31N 55°57' W 004°46'0 0.0
2016-May-20 14:28N 55°57' W 004°46'0 0.0
2016-May-20 13:31N 55°57' W 004°46'0 0.0
2016-May-20 12:31N 55°57' W 004°46'0 0.0
2016-May-20 11:31N 55°57' W 004°46'0 0.0
2016-May-20 10:31N 55°57' W 004°46'0 0.0
2016-May-20 09:28N 55°57' W 004°46'0 0.0
2016-May-20 08:31N 55°57' W 004°46'0 0.0
2016-May-20 07:31N 55°57' W 004°46'0 0.0
2016-May-20 06:31N 55°57' W 004°46'2 2.3
2016-May-20 05:33N 55°58' W 004°50'1312.8
2016-May-20 04:33N 55°46' W 004°58'8 7.9
2016-May-20 03:33N 55°38' W 004°59'2 2.1
2016-May-20 02:33N 55°37' W 004°56'1 1.0
2016-May-20 01:34N 55°37' W 004°58'1 0.7
2016-May-20 00:27N 55°37' W 004°59'0 0.4
2016-May-19 23:22N 55°37' W 004°60'1 0.6
2016-May-19 22:28N 55°37' W 005°00'3 3.9
2016-May-19 21:33N 55°36' W 004°55'2 1.1
2016-May-19 20:03N 55°36' W 004°58'1 1.1
2016-May-19 19:32N 55°35' W 004°58'3 2.9
2016-May-19 18:33N 55°38' W 004°56'0 0.5
2016-May-19 17:33N 55°38' W 004°56'1 1.3
2016-May-19 16:33N 55°37' W 004°57'1 0.6
2016-May-19 15:30N 55°37' W 004°58'1412.4
2016-May-19 14:23N 55°24' W 005°03'1417.3
2016-May-19 13:33N 55°11' W 005°16'1919.2
2016-May-19 12:34N 54°53' W 005°24'2020.0
2016-May-19 11:34N 54°34' W 005°11'1919.0
2016-May-19 10:34N 54°16' W 005°01'12120.2
2016-May-19 04:33N 52°17' W 005°36'2020.0
2016-May-19 03:33N 51°58' W 005°45'2318.7
2016-May-19 02:21N 51°36' W 005°53'1417.7
2016-May-19 01:33N 51°22' W 005°48'1717.4
2016-May-19 00:33N 51°05' W 005°40'1616.4
2016-May-18 23:33N 50°49' W 005°43'1817.7
2016-May-18 22:33N 50°33' W 005°55'1716.6
2016-May-18 21:33N 50°16' W 005°54'1616.2
2016-May-18 20:33N 50°00' W 005°53'2114.9
2016-May-18 19:10N 49°54' W 005°23'1117.9
2016-May-18 18:33N 49°54' W 005°06'1817.7
2016-May-18 17:33N 49°54' W 004°38'1717.1
2016-May-18 16:33N 49°55' W 004°12'1716.6
2016-May-18 15:32N 49°55' W 003°45'1717.1
2016-May-18 14:33N 49°55' W 003°20'1817.7
2016-May-18 13:34N 49°59' W 002°53'2519.2
2016-May-18 12:15N 50°07' W 002°16'3620.1
2016-May-18 10:29N 50°21' W 001°25'1819.4
2016-May-18 09:33N 50°32' W 001°03'1111.5
2016-May-18 08:34N 50°44' W 001°03'1212.1
2016-May-18 07:33N 50°50' W 001°19'7 6.2
2016-May-18 06:27N 50°54' W 001°27'0 0.0
2016-May-18 05:33N 50°54' W 001°27'0 0.0
2016-May-18 04:33N 50°54' W 001°27'0 0.0
2016-May-18 03:33N 50°54' W 001°27'0 0.0
2016-May-18 02:27N 50°54' W 001°27'0 0.0
2016-May-18 01:30N 50°54' W 001°27'0 0.0
2016-May-18 00:30N 50°54' W 001°27'0 0.0
2016-May-17 23:33N 50°54' W 001°27'0 0.0
2016-May-17 22:33N 50°54' W 001°27'0 0.0
2016-May-17 21:30N 50°54' W 001°27'0 0.0
2016-May-17 20:33N 50°54' W 001°27'0 0.0
2016-May-17 19:30N 50°54' W 001°27'0 0.0
2016-May-17 18:30N 50°54' W 001°27'0 0.0
2016-May-17 17:30N 50°54' W 001°27'0 0.0
2016-May-17 16:33N 50°54' W 001°27'0 0.0
2016-May-17 15:33N 50°54' W 001°27'0 0.0
2016-May-17 14:33N 50°54' W 001°27'0 0.0
2016-May-17 13:33N 50°54' W 001°27'0 0.0
2016-May-17 12:33N 50°54' W 001°27'0 0.0
2016-May-17 11:30N 50°54' W 001°27'0 0.0
2016-May-17 10:30N 50°54' W 001°27'0 0.0
2016-May-17 09:27N 50°54' W 001°27'0 0.0
2016-May-17 08:30N 50°54' W 001°27'0 0.0
2016-May-17 07:33N 50°54' W 001°27'0 0.0
2016-May-17 04:30N 50°54' W 001°27'0 0.0
2016-May-17 03:33N 50°54' W 001°27'0 0.1
2016-May-17 02:34N 50°54' W 001°27'5 5.3
2016-May-17 01:33N 50°51' W 001°20'9 8.5
2016-May-17 00:33N 50°46' W 001°10'9 9.0
2016-May-16 23:33N 50°39' W 001°00'1 0.7
2016-May-16 22:32N 50°39' W 001°01'0 0.0
2016-May-16 21:32N 50°39' W 001°01'0 0.2
2016-May-16 20:33N 50°39' W 001°01'0 0.1
2016-May-16 19:33N 50°39' W 001°00'0 0.0
2016-May-16 18:33N 50°39' W 001°00'0 0.0
2016-May-16 17:33N 50°39' W 001°00'0 0.0
2016-May-16 16:32N 50°39' W 001°00'0 0.0
2016-May-16 15:32N 50°39' W 001°00'0 0.0
2016-May-16 14:32N 50°39' W 001°00'0 0.0
2016-May-16 13:32N 50°39' W 001°01'0 0.2
2016-May-16 12:33N 50°39' W 001°01'0 0.1
2016-May-16 11:32N 50°39' W 001°01'0 0.0
2016-May-16 10:32N 50°39' W 001°01'0 0.0
2016-May-16 09:33N 50°39' W 001°01'0 0.0
2016-May-16 08:32N 50°39' W 001°01'0 0.1
2016-May-16 07:32N 50°39' W 001°01'0 0.1
2016-May-16 06:32N 50°39' W 001°01'0 0.1
2016-May-16 05:32N 50°39' W 001°00'0 0.0
2016-May-16 04:32N 50°39' W 001°00'0 0.0
2016-May-16 03:33N 50°39' W 001°00'0 0.0
2016-May-16 02:33N 50°39' W 001°00'0 0.0
2016-May-16 01:31N 50°39' W 001°00'0 0.0
2016-May-16 00:31N 50°39' W 001°00'0 0.1
2016-May-15 23:31N 50°39' W 001°01'0 0.1
2016-May-15 22:31N 50°39' W 001°01'0 0.0
2016-May-15 21:31N 50°39' W 001°01'0 0.1
2016-May-15 20:31N 50°39' W 001°01'0 0.1
2016-May-15 19:31N 50°39' W 001°01'0 0.1
2016-May-15 18:31N 50°39' W 001°01'0 0.0
2016-May-15 17:31N 50°39' W 001°00'0 0.0
2016-May-15 16:31N 50°39' W 001°00'0 0.0
2016-May-15 15:31N 50°39' W 001°00'0 0.0
2016-May-15 14:31N 50°39' W 001°00'0 0.0
2016-May-15 13:31N 50°39' W 001°00'0 0.0
2016-May-15 12:31N 50°39' W 001°01'0 0.0
2016-May-15 11:31N 50°39' W 001°00'0 0.2
2016-May-15 10:31N 50°39' W 001°01'0 0.1
2016-May-15 09:31N 50°39' W 001°01'0 0.0
2016-May-15 08:31N 50°39' W 001°01'0 0.1
2016-May-15 07:31N 50°39' W 001°01'0 0.2
2016-May-15 06:31N 50°39' W 001°01'0 0.0
2016-May-15 05:31N 50°39' W 001°01'0 0.0
2016-May-15 04:31N 50°39' W 001°01'0 0.0
2016-May-15 03:31N 50°39' W 001°01'0 0.0
2016-May-15 02:31N 50°39' W 001°01'0 0.0
2016-May-15 01:31N 50°39' W 001°01'0 0.0
2016-May-15 00:31N 50°39' W 001°01'0 0.0
2016-May-14 23:31N 50°39' W 001°01'0 0.2
2016-May-14 22:34N 50°39' W 001°00'1010.0
2016-May-14 21:33N 50°34' W 000°46'1615.5
2016-May-14 20:33N 50°29' W 000°23'2 1.4
2016-May-14 19:25N 50°30' W 000°21'8 9.1
2016-May-14 18:33N 50°31' W 000°09'1616.4
2016-May-14 17:33N 50°34' E 000°17'1716.6
2016-May-14 16:33N 50°40' E 000°41'2016.4
2016-May-14 15:19N 50°52' E 001°07'1317.6
2016-May-14 14:33N 51°01' E 001°22'1919.2
2016-May-14 13:34N 51°14' E 001°45'1616.2
2016-May-14 12:34N 51°25' E 002°04'1312.8
2016-May-14 11:33N 51°21' E 002°24'1313.3
2016-May-14 10:33N 51°22' E 002°45'1514.5
2016-May-14 09:33N 51°24' E 003°08'1615.8
2016-May-14 08:34N 51°26' E 003°33'1110.6
2016-May-14 07:33N 51°21' E 003°48'9 9.4
2016-May-14 06:33N 51°25' E 004°02'7 6.9
2016-May-14 05:33N 51°23' E 004°13'6 5.7
2016-May-14 04:32N 51°18' E 004°16'  
Track history (hours):
 
Tides and Currents Weather Stations Pressure Air Temp Water Temp Dewpoint Dewpoint Depression Visibility Wind Speed Wind Dir Waves Ship Positions

Windhoek

Last reported at 2016-May-24 04:14 UTC. Time now 2016-May-24 06:08 UTC.
Position N 50°00' W 005°59'.

Length 172 m; draft 7.5 m.

Type: Ship (hazmat cat C). MMSI: 370431000.

Date/timePositionNaut miles runAvg speedWind from/ knotsBaromVisibWave heightAir tempDewpointWater temp
2016-May-24 04:14N 50°00' W 005°59'1015.0
2016-May-24 03:34N 50°10' W 005°59'1515.4
2016-May-24 02:33N 50°26' W 005°60'1616.2
2016-May-24 01:33N 50°42' W 006°00'18415.3
2016-May-23 13:33N 53°34' W 004°13'1716.7
2016-May-23 12:33N 53°34' W 003°45'1515.2
2016-May-23 11:33N 53°32' W 003°19'8 8.5
2016-May-23 10:33N 53°30' W 003°05'4 3.7
2016-May-23 09:33N 53°27' W 003°01'1 0.6
2016-May-23 08:33N 53°28' W 003°01'0 0.1
2016-May-23 07:30N 53°28' W 003°01'0 0.0
2016-May-23 06:30N 53°28' W 003°01'0 0.0
2016-May-23 05:33N 53°28' W 003°01'0 0.0
2016-May-23 04:33N 53°28' W 003°01'0 0.0
2016-May-23 03:33N 53°28' W 003°01'0 0.0
2016-May-23 02:33N 53°28' W 003°01'0 0.0
2016-May-23 01:33N 53°28' W 003°01'0 0.0
2016-May-23 00:33N 53°28' W 003°01'0 0.0
2016-May-22 23:33N 53°28' W 003°01'0 0.0
2016-May-22 22:30N 53°28' W 003°01'0 0.0
2016-May-22 21:33N 53°28' W 003°01'0 0.0
2016-May-22 20:33N 53°28' W 003°01'0 0.0
2016-May-22 19:33N 53°28' W 003°01'0 0.0
2016-May-22 18:33N 53°28' W 003°01'0 0.0
2016-May-22 17:33N 53°28' W 003°01'0 0.0
2016-May-22 16:30N 53°28' W 003°01'0 0.0
2016-May-22 15:33N 53°28' W 003°01'0 0.0
2016-May-22 14:33N 53°28' W 003°01'0 0.0
2016-May-22 13:33N 53°28' W 003°01'0 0.0
2016-May-22 12:33N 53°28' W 003°01'0 0.0
2016-May-22 11:33N 53°28' W 003°01'0 0.1
2016-May-22 10:33N 53°28' W 003°01'1 0.7
2016-May-22 09:33N 53°27' W 003°01'2 1.6
2016-May-22 08:33N 53°28' W 003°03'8 8.4
2016-May-22 07:34N 53°31' W 003°16'9 8.8
2016-May-22 06:33N 53°32' W 003°31'1818.4
2016-May-22 05:33N 53°33' W 004°02'54 3.0
2016-May-21 11:33N 53°50' W 005°28'1717.1
2016-May-21 10:33N 54°05' W 005°14'1717.0
2016-May-21 09:34N 54°20' W 005°02'1817.9
2016-May-21 08:34N 54°36' W 005°17'1615.7
2016-May-21 07:33N 54°43' W 005°41'8 7.7
2016-May-21 06:28N 54°38' W 005°53'0 0.2
2016-May-21 05:31N 54°38' W 005°53'0 0.0
2016-May-21 04:28N 54°38' W 005°53'0 0.0
2016-May-21 03:31N 54°38' W 005°53'0 0.0
2016-May-21 02:31N 54°38' W 005°53'0 0.0
2016-May-21 01:31N 54°38' W 005°53'4 4.1
2016-May-21 00:34N 54°41' W 005°48'1111.5
2016-May-20 23:34N 54°49' W 005°34'1918.5
2016-May-20 22:33N 55°05' W 005°19'1917.8
2016-May-20 21:28N 55°23' W 005°04'2017.4
2016-May-20 20:18N 55°43' W 004°59'912.4
2016-May-20 19:33N 55°52' W 004°57'8 8.0
2016-May-20 18:31N 55°57' W 004°46'0 0.1
2016-May-20 17:31N 55°57' W 004°46'0 0.0
2016-May-20 16:31N 55°57' W 004°46'0 0.0
2016-May-20 15:31N 55°57' W 004°46'0 0.0
2016-May-20 14:28N 55°57' W 004°46'0 0.0
2016-May-20 13:31N 55°57' W 004°46'0 0.0
2016-May-20 12:31N 55°57' W 004°46'0 0.0
2016-May-20 11:31N 55°57' W 004°46'0 0.0
2016-May-20 10:31N 55°57' W 004°46'0 0.0
2016-May-20 09:28N 55°57' W 004°46'0 0.0
2016-May-20 08:31N 55°57' W 004°46'0 0.0
2016-May-20 07:31N 55°57' W 004°46'0 0.0
2016-May-20 06:31N 55°57' W 004°46'2 2.3
2016-May-20 05:33N 55°58' W 004°50'1312.8
2016-May-20 04:33N 55°46' W 004°58'8 7.9
2016-May-20 03:33N 55°38' W 004°59'2 2.1
2016-May-20 02:33N 55°37' W 004°56'1 1.0
2016-May-20 01:34N 55°37' W 004°58'1 0.7
2016-May-20 00:27N 55°37' W 004°59'0 0.4
2016-May-19 23:22N 55°37' W 004°60'1 0.6
2016-May-19 22:28N 55°37' W 005°00'3 3.9
2016-May-19 21:33N 55°36' W 004°55'2 1.1
2016-May-19 20:03N 55°36' W 004°58'1 1.1
2016-May-19 19:32N 55°35' W 004°58'3 2.9
2016-May-19 18:33N 55°38' W 004°56'0 0.5
2016-May-19 17:33N 55°38' W 004°56'1 1.3
2016-May-19 16:33N 55°37' W 004°57'1 0.6
2016-May-19 15:30N 55°37' W 004°58'1412.4
2016-May-19 14:23N 55°24' W 005°03'1417.3
2016-May-19 13:33N 55°11' W 005°16'1919.2
2016-May-19 12:34N 54°53' W 005°24'2020.0
2016-May-19 11:34N 54°34' W 005°11'1919.0
2016-May-19 10:34N 54°16' W 005°01'12120.2
2016-May-19 04:33N 52°17' W 005°36'2020.0
2016-May-19 03:33N 51°58' W 005°45'2318.7
2016-May-19 02:21N 51°36' W 005°53'1417.7
2016-May-19 01:33N 51°22' W 005°48'1717.4
2016-May-19 00:33N 51°05' W 005°40'1616.4
2016-May-18 23:33N 50°49' W 005°43'1817.7
2016-May-18 22:33N 50°33' W 005°55'1716.6
2016-May-18 21:33N 50°16' W 005°54'1616.2
2016-May-18 20:33N 50°00' W 005°53'2114.9
2016-May-18 19:10N 49°54' W 005°23'1117.9
2016-May-18 18:33N 49°54' W 005°06'1817.7
2016-May-18 17:33N 49°54' W 004°38'1717.1
2016-May-18 16:33N 49°55' W 004°12'1716.6
2016-May-18 15:32N 49°55' W 003°45'1717.1
2016-May-18 14:33N 49°55' W 003°20'1817.7
2016-May-18 13:34N 49°59' W 002°53'2519.2
2016-May-18 12:15N 50°07' W 002°16'3620.1
2016-May-18 10:29N 50°21' W 001°25'1819.4
2016-May-18 09:33N 50°32' W 001°03'1111.5
2016-May-18 08:34N 50°44' W 001°03'1212.1
2016-May-18 07:33N 50°50' W 001°19'7 6.2
2016-May-18 06:27N 50°54' W 001°27'0 0.0
2016-May-18 05:33N 50°54' W 001°27'0 0.0
2016-May-18 04:33N 50°54' W 001°27'0 0.0
2016-May-18 03:33N 50°54' W 001°27'0 0.0
2016-May-18 02:27N 50°54' W 001°27'0 0.0
2016-May-18 01:30N 50°54' W 001°27'0 0.0
2016-May-18 00:30N 50°54' W 001°27'0 0.0
2016-May-17 23:33N 50°54' W 001°27'0 0.0
2016-May-17 22:33N 50°54' W 001°27'0 0.0
2016-May-17 21:30N 50°54' W 001°27'0 0.0
2016-May-17 20:33N 50°54' W 001°27'0 0.0
2016-May-17 19:30N 50°54' W 001°27'0 0.0
2016-May-17 18:30N 50°54' W 001°27'0 0.0
2016-May-17 17:30N 50°54' W 001°27'0 0.0
2016-May-17 16:33N 50°54' W 001°27'0 0.0
2016-May-17 15:33N 50°54' W 001°27'0 0.0
2016-May-17 14:33N 50°54' W 001°27'0 0.0
2016-May-17 13:33N 50°54' W 001°27'0 0.0
2016-May-17 12:33N 50°54' W 001°27'0 0.0
2016-May-17 11:30N 50°54' W 001°27'0 0.0
2016-May-17 10:30N 50°54' W 001°27'0 0.0
2016-May-17 09:27N 50°54' W 001°27'0 0.0
2016-May-17 08:30N 50°54' W 001°27'0 0.0
2016-May-17 07:33N 50°54' W 001°27'0 0.0
2016-May-17 04:30N 50°54' W 001°27'0 0.0
2016-May-17 03:33N 50°54' W 001°27'0 0.1
2016-May-17 02:34N 50°54' W 001°27'5 5.3
2016-May-17 01:33N 50°51' W 001°20'9 8.5
2016-May-17 00:33N 50°46' W 001°10'9 9.0
2016-May-16 23:33N 50°39' W 001°00'1 0.7
2016-May-16 22:32N 50°39' W 001°01'0 0.0
2016-May-16 21:32N 50°39' W 001°01'0 0.2
2016-May-16 20:33N 50°39' W 001°01'0 0.1
2016-May-16 19:33N 50°39' W 001°00'0 0.0
2016-May-16 18:33N 50°39' W 001°00'0 0.0
2016-May-16 17:33N 50°39' W 001°00'0 0.0
2016-May-16 16:32N 50°39' W 001°00'0 0.0
2016-May-16 15:32N 50°39' W 001°00'0 0.0
2016-May-16 14:32N 50°39' W 001°00'0 0.0
2016-May-16 13:32N 50°39' W 001°01'0 0.2
2016-May-16 12:33N 50°39' W 001°01'0 0.1
2016-May-16 11:32N 50°39' W 001°01'0 0.0
2016-May-16 10:32N 50°39' W 001°01'0 0.0
2016-May-16 09:33N 50°39' W 001°01'0 0.0
2016-May-16 08:32N 50°39' W 001°01'0 0.1
2016-May-16 07:32N 50°39' W 001°01'0 0.1
2016-May-16 06:32N 50°39' W 001°01'0 0.1
2016-May-16 05:32N 50°39' W 001°00'0 0.0
2016-May-16 04:32N 50°39' W 001°00'0 0.0
2016-May-16 03:33N 50°39' W 001°00'0 0.0
2016-May-16 02:33N 50°39' W 001°00'0 0.0
2016-May-16 01:31N 50°39' W 001°00'0 0.0
2016-May-16 00:31N 50°39' W 001°00'0 0.1
2016-May-15 23:31N 50°39' W 001°01'0 0.1
2016-May-15 22:31N 50°39' W 001°01'0 0.0
2016-May-15 21:31N 50°39' W 001°01'0 0.1
2016-May-15 20:31N 50°39' W 001°01'0 0.1
2016-May-15 19:31N 50°39' W 001°01'0 0.1
2016-May-15 18:31N 50°39' W 001°01'0 0.0
2016-May-15 17:31N 50°39' W 001°00'0 0.0
2016-May-15 16:31N 50°39' W 001°00'0 0.0
2016-May-15 15:31N 50°39' W 001°00'0 0.0
2016-May-15 14:31N 50°39' W 001°00'0 0.0
2016-May-15 13:31N 50°39' W 001°00'0 0.0
2016-May-15 12:31N 50°39' W 001°01'0 0.0
2016-May-15 11:31N 50°39' W 001°00'0 0.2
2016-May-15 10:31N 50°39' W 001°01'0 0.1
2016-May-15 09:31N 50°39' W 001°01'0 0.0
2016-May-15 08:31N 50°39' W 001°01'0 0.1
2016-May-15 07:31N 50°39' W 001°01'0 0.2
2016-May-15 06:31N 50°39' W 001°01'0 0.0
2016-May-15 05:31N 50°39' W 001°01'0 0.0
2016-May-15 04:31N 50°39' W 001°01'0 0.0
2016-May-15 03:31N 50°39' W 001°01'0 0.0
2016-May-15 02:31N 50°39' W 001°01'0 0.0
2016-May-15 01:31N 50°39' W 001°01'0 0.0
2016-May-15 00:31N 50°39' W 001°01'0 0.0
2016-May-14 23:31N 50°39' W 001°01'0 0.2
2016-May-14 22:34N 50°39' W 001°00'1010.0
2016-May-14 21:33N 50°34' W 000°46'1615.5
2016-May-14 20:33N 50°29' W 000°23'2 1.4
2016-May-14 19:25N 50°30' W 000°21'8 9.1
2016-May-14 18:33N 50°31' W 000°09'1616.4
2016-May-14 17:33N 50°34' E 000°17'1716.6
2016-May-14 16:33N 50°40' E 000°41'2016.4
2016-May-14 15:19N 50°52' E 001°07'1317.6
2016-May-14 14:33N 51°01' E 001°22'1919.2
2016-May-14 13:34N 51°14' E 001°45'1616.2
2016-May-14 12:34N 51°25' E 002°04'1312.8
2016-May-14 11:33N 51°21' E 002°24'1313.3
2016-May-14 10:33N 51°22' E 002°45'1514.5
2016-May-14 09:33N 51°24' E 003°08'1615.8
2016-May-14 08:34N 51°26' E 003°33'1110.6
2016-May-14 07:33N 51°21' E 003°48'9 9.4
2016-May-14 06:33N 51°25' E 004°02'7 6.9
2016-May-14 05:33N 51°23' E 004°13'6 5.7
2016-May-14 04:32N 51°18' E 004°16'  

Dump ship's entire track history